createdAt,value
2024-03-03T00:00:35.407Z,10.26
2024-03-03T00:01:35.466Z,10.25
2024-03-03T00:02:35.527Z,10.26
2024-03-03T00:03:37.019Z,10.26
2024-03-03T00:04:35.696Z,10.25
2024-03-03T00:05:35.773Z,10.25
2024-03-03T00:06:35.905Z,10.24
2024-03-03T00:07:35.965Z,10.22
2024-03-03T00:08:36.015Z,10.22
2024-03-03T00:09:36.189Z,10.26
2024-03-03T00:10:36.146Z,10.28
2024-03-03T00:11:36.304Z,10.31
2024-03-03T00:12:36.368Z,10.29
2024-03-03T00:13:36.417Z,10.29
2024-03-03T00:14:36.463Z,10.31
2024-03-03T00:15:36.594Z,10.32
2024-03-03T00:16:36.638Z,10.35
2024-03-03T00:17:36.755Z,10.36
2024-03-03T00:18:36.833Z,10.38
2024-03-03T00:19:36.904Z,10.42
2024-03-03T00:20:36.975Z,10.44
2024-03-03T00:21:37.277Z,10.47
2024-03-03T00:22:37.217Z,10.47
2024-03-03T00:23:37.292Z,10.46
2024-03-03T00:24:37.387Z,10.46
2024-03-03T00:25:37.370Z,10.49
2024-03-03T00:26:37.435Z,10.47
2024-03-03T00:27:38.359Z,10.51
2024-03-03T00:28:37.608Z,10.52
2024-03-03T00:29:37.722Z,10.49
2024-03-03T00:30:37.882Z,10.51
2024-03-03T00:31:37.870Z,10.51
2024-03-03T00:32:37.945Z,10.52
2024-03-03T00:33:38.083Z,10.51
2024-03-03T00:34:38.125Z,10.49
2024-03-03T00:35:38.202Z,10.51
2024-03-03T00:36:38.299Z,10.49
2024-03-03T00:37:38.329Z,10.49
2024-03-03T00:38:38.563Z,10.54
2024-03-03T00:39:38.552Z,10.54
2024-03-03T00:40:38.570Z,10.54
2024-03-03T00:41:38.661Z,10.55
2024-03-03T00:42:38.784Z,10.54
2024-03-03T00:43:38.839Z,10.52
2024-03-03T00:44:38.972Z,10.52
2024-03-03T00:45:39.014Z,10.52
2024-03-03T00:46:39.098Z,10.49
2024-03-03T00:47:39.219Z,10.47
2024-03-03T00:48:39.306Z,10.47
2024-03-03T00:49:39.365Z,10.46
2024-03-03T00:50:39.459Z,10.46
2024-03-03T00:51:39.561Z,10.46
2024-03-03T00:52:39.642Z,10.44
2024-03-03T00:53:39.693Z,10.43
2024-03-03T00:54:39.826Z,10.46
2024-03-03T00:55:39.873Z,10.46
2024-03-03T00:56:39.969Z,10.47
2024-03-03T00:57:40.056Z,10.43
2024-03-03T00:58:40.127Z,10.44
2024-03-03T00:59:40.188Z,10.43
2024-03-03T01:00:40.317Z,10.44
2024-03-03T01:01:40.356Z,10.43
2024-03-03T01:02:40.465Z,10.43
2024-03-03T01:03:40.577Z,10.42
2024-03-03T01:04:40.641Z,10.42
2024-03-03T01:05:40.688Z,10.43
2024-03-03T01:06:40.825Z,10.43
2024-03-03T01:07:43.217Z,10.42
2024-03-03T01:08:40.956Z,10.38
2024-03-03T01:09:41.090Z,10.36
2024-03-03T01:10:41.130Z,10.36
2024-03-03T01:11:41.258Z,10.38
2024-03-03T01:12:41.267Z,10.36
2024-03-03T01:13:41.314Z,10.38
2024-03-03T01:14:41.429Z,10.35
2024-03-03T01:15:41.496Z,10.34
2024-03-03T01:16:41.543Z,10.34
2024-03-03T01:17:41.610Z,10.36
2024-03-03T01:18:41.712Z,10.35
2024-03-03T01:19:42.082Z,10.35
2024-03-03T01:20:41.871Z,10.35
2024-03-03T01:21:41.976Z,10.35
2024-03-03T01:22:42.063Z,10.34
2024-03-03T01:23:42.123Z,10.34
2024-03-03T01:24:42.296Z,10.35
2024-03-03T01:25:42.268Z,10.35
2024-03-03T01:26:42.365Z,10.35
2024-03-03T01:27:42.466Z,10.34
2024-03-03T01:28:42.512Z,10.32
2024-03-03T01:29:42.614Z,10.32
2024-03-03T01:30:42.766Z,10.31
2024-03-03T01:31:42.802Z,10.31
2024-03-03T01:32:42.933Z,10.29
2024-03-03T01:33:42.982Z,10.26
2024-03-03T01:34:43.057Z,10.28
2024-03-03T01:35:43.112Z,10.28
2024-03-03T01:36:43.231Z,10.28
2024-03-03T01:37:43.270Z,10.28
2024-03-03T01:38:43.343Z,10.29
2024-03-03T01:39:43.536Z,10.31
2024-03-03T01:40:43.504Z,10.29
2024-03-03T01:41:43.569Z,10.28
2024-03-03T01:42:43.697Z,10.31
2024-03-03T01:43:43.766Z,10.28
2024-03-03T01:44:43.878Z,10.29
2024-03-03T01:45:44.015Z,10.28
2024-03-03T01:46:44.046Z,10.31
2024-03-03T01:47:44.146Z,10.29
2024-03-03T01:48:44.263Z,10.26
2024-03-03T01:49:44.306Z,10.26
2024-03-03T01:50:44.369Z,10.26
2024-03-03T01:51:44.435Z,10.29
2024-03-03T01:52:44.518Z,10.29
2024-03-03T01:53:44.632Z,10.28
2024-03-03T01:54:44.716Z,10.28
2024-03-03T01:55:44.766Z,10.25
2024-03-03T01:56:44.937Z,10.25
2024-03-03T01:57:44.940Z,10.25
2024-03-03T01:58:45.011Z,10.26
2024-03-03T01:59:45.107Z,10.24
2024-03-03T02:00:45.208Z,10.22
2024-03-03T02:01:45.290Z,10.25
2024-03-03T02:02:45.312Z,10.25
2024-03-03T02:03:45.410Z,10.26
2024-03-03T02:04:45.484Z,10.25
2024-03-03T02:05:45.548Z,10.26
2024-03-03T02:06:45.628Z,10.24
2024-03-03T02:07:45.689Z,10.22
2024-03-03T02:08:45.783Z,10.24
2024-03-03T02:09:45.992Z,10.22
2024-03-03T02:10:45.994Z,10.22
2024-03-03T02:11:46.038Z,10.18
2024-03-03T02:12:46.152Z,10.16
2024-03-03T02:13:46.198Z,10.17
2024-03-03T02:14:46.306Z,10.18
2024-03-03T02:15:46.421Z,10.17
2024-03-03T02:16:46.428Z,10.18
2024-03-03T02:17:46.569Z,10.18
2024-03-03T02:18:46.618Z,10.14
2024-03-03T02:19:46.723Z,10.13
2024-03-03T02:20:46.776Z,10.10
2024-03-03T02:21:46.861Z,10.07
2024-03-03T02:22:46.909Z,10.07
2024-03-03T02:23:46.970Z,10.06
2024-03-03T02:24:47.157Z,10.04
2024-03-03T02:25:47.158Z,10.04
2024-03-03T02:26:47.258Z,10.02
2024-03-03T02:27:47.342Z,9.99
2024-03-03T02:28:47.397Z,9.99
2024-03-03T02:29:47.545Z,9.98
2024-03-03T02:30:47.556Z,9.98
2024-03-03T02:31:47.585Z,9.93
2024-03-03T02:32:47.752Z,9.89
2024-03-03T02:33:47.861Z,9.85
2024-03-03T02:34:48.077Z,9.85
2024-03-03T02:35:47.936Z,9.85
2024-03-03T02:36:48.048Z,9.81
2024-03-03T02:37:48.119Z,9.81
2024-03-03T02:38:48.204Z,9.80
2024-03-03T02:39:48.484Z,9.77
2024-03-03T02:40:48.357Z,9.77
2024-03-03T02:41:48.453Z,9.77
2024-03-03T02:42:48.550Z,9.74
2024-03-03T02:43:48.629Z,9.71
2024-03-03T02:44:48.820Z,9.67
2024-03-03T02:45:48.804Z,9.62
2024-03-03T02:46:48.831Z,9.56
2024-03-03T02:47:48.944Z,9.52
2024-03-03T02:48:49.139Z,9.49
2024-03-03T02:49:49.056Z,9.44
2024-03-03T02:50:49.127Z,9.45
2024-03-03T02:51:49.239Z,9.44
2024-03-03T02:52:49.320Z,9.45
2024-03-03T02:53:49.411Z,9.48
2024-03-03T02:54:49.918Z,9.45
2024-03-03T02:55:49.589Z,9.41
2024-03-03T02:56:49.659Z,9.38
2024-03-03T02:57:49.769Z,9.32
2024-03-03T02:58:49.810Z,9.23
2024-03-03T02:59:49.906Z,9.17
2024-03-03T03:00:50.141Z,9.16
2024-03-03T03:01:50.289Z,9.16
2024-03-03T03:02:50.143Z,9.17
2024-03-03T03:03:50.255Z,9.17
2024-03-03T03:04:50.322Z,9.22
2024-03-03T03:05:50.441Z,9.23
2024-03-03T03:06:50.521Z,9.22
2024-03-03T03:07:50.617Z,9.24
2024-03-03T03:08:50.668Z,9.22
2024-03-03T03:09:50.766Z,9.22
2024-03-03T03:10:50.852Z,9.19
2024-03-03T03:11:50.890Z,9.19
2024-03-03T03:12:51.025Z,9.17
2024-03-03T03:13:51.062Z,9.15
2024-03-03T03:14:51.148Z,9.12
2024-03-03T03:15:51.283Z,9.08
2024-03-03T03:16:51.292Z,9.04
2024-03-03T03:17:51.407Z,9.01
2024-03-03T03:18:51.508Z,9.01
2024-03-03T03:19:51.678Z,9.00
2024-03-03T03:20:51.604Z,9.03
2024-03-03T03:21:51.735Z,9.01
2024-03-03T03:22:51.766Z,9.00
2024-03-03T03:23:51.858Z,8.98
2024-03-03T03:24:51.982Z,9.00
2024-03-03T03:25:52.033Z,8.98
2024-03-03T03:26:52.080Z,8.96
2024-03-03T03:27:52.199Z,8.94
2024-03-03T03:28:52.219Z,8.96
2024-03-03T03:29:52.320Z,8.96
2024-03-03T03:30:52.461Z,8.98
2024-03-03T03:31:52.446Z,9.00
2024-03-03T03:32:52.587Z,9.10
2024-03-03T03:33:52.653Z,9.15
2024-03-03T03:34:52.726Z,9.19
2024-03-03T03:35:52.818Z,9.20
2024-03-03T03:36:52.940Z,9.17
2024-03-03T03:37:52.944Z,9.17
2024-03-03T03:38:53.026Z,9.15
2024-03-03T03:39:53.125Z,9.17
2024-03-03T03:40:53.160Z,9.17
2024-03-03T03:41:53.239Z,9.19
2024-03-03T03:42:53.365Z,9.19
2024-03-03T03:43:53.388Z,9.19
2024-03-03T03:44:53.457Z,9.20
2024-03-03T03:45:53.804Z,9.20
2024-03-03T03:46:53.643Z,9.23
2024-03-03T03:47:53.733Z,9.24
2024-03-03T03:48:53.812Z,9.26
2024-03-03T03:49:53.876Z,9.24
2024-03-03T03:50:53.991Z,9.24
2024-03-03T03:51:54.099Z,9.23
2024-03-03T03:52:54.123Z,9.24
2024-03-03T03:53:54.185Z,9.27
2024-03-03T03:54:54.266Z,9.26
2024-03-03T03:55:54.366Z,9.26
2024-03-03T03:56:54.397Z,9.26
2024-03-03T03:57:54.505Z,9.26
2024-03-03T03:58:54.561Z,9.22
2024-03-03T03:59:54.636Z,9.23
2024-03-03T04:00:54.766Z,9.24
2024-03-03T04:01:54.916Z,9.24
2024-03-03T04:02:54.884Z,9.23
2024-03-03T04:03:54.952Z,9.22
2024-03-03T04:04:55.056Z,9.22
2024-03-03T04:05:55.133Z,9.22
2024-03-03T04:06:55.242Z,9.22
2024-03-03T04:07:55.267Z,9.23
2024-03-03T04:08:55.334Z,9.23
2024-03-03T04:09:55.444Z,9.23
2024-03-03T04:10:55.516Z,9.22
2024-03-03T04:11:55.618Z,9.23
2024-03-03T04:12:55.728Z,9.22
2024-03-03T04:13:55.793Z,9.22
2024-03-03T04:14:55.846Z,9.22
2024-03-03T04:15:56.042Z,9.23
2024-03-03T04:16:56.018Z,9.24
2024-03-03T04:17:56.164Z,9.22
2024-03-03T04:18:56.154Z,9.22
2024-03-03T04:19:56.201Z,9.20
2024-03-03T04:20:56.292Z,9.17
2024-03-03T04:21:56.389Z,9.19
2024-03-03T04:22:56.409Z,9.22
2024-03-03T04:23:56.511Z,9.20
2024-03-03T04:24:56.612Z,9.20
2024-03-03T04:25:56.700Z,9.19
2024-03-03T04:26:56.738Z,9.20
2024-03-03T04:27:56.879Z,9.20
2024-03-03T04:28:56.922Z,9.19
2024-03-03T04:29:56.993Z,9.20
2024-03-03T04:30:57.111Z,9.16
2024-03-03T04:31:57.145Z,9.20
2024-03-03T04:32:57.272Z,9.20
2024-03-03T04:33:57.367Z,9.22
2024-03-03T04:34:57.371Z,9.20
2024-03-03T04:35:57.434Z,9.23
2024-03-03T04:36:57.510Z,9.22
2024-03-03T04:37:57.564Z,9.22
2024-03-03T04:38:57.627Z,9.20
2024-03-03T04:39:57.843Z,9.20
2024-03-03T04:40:57.792Z,9.19
2024-03-03T04:41:57.865Z,9.16
2024-03-03T04:42:58.011Z,9.12
2024-03-03T04:43:58.052Z,9.13
2024-03-03T04:44:58.135Z,9.12
2024-03-03T04:45:58.792Z,9.12
2024-03-03T04:46:58.261Z,9.12
2024-03-03T04:47:58.370Z,9.13
2024-03-03T04:48:58.431Z,9.13
2024-03-03T04:49:58.487Z,9.13
2024-03-03T04:50:58.574Z,9.16
2024-03-03T04:51:58.672Z,9.15
2024-03-03T04:52:58.734Z,9.15
2024-03-03T04:53:58.828Z,9.17
2024-03-03T04:54:58.931Z,9.16
2024-03-03T04:55:58.995Z,9.15
2024-03-03T04:56:59.050Z,9.15
2024-03-03T04:57:59.146Z,9.15
2024-03-03T04:58:59.304Z,9.16
2024-03-03T04:59:59.322Z,9.15
2024-03-03T05:00:59.515Z,9.13
2024-03-03T05:01:59.496Z,9.13
2024-03-03T05:02:59.505Z,9.12
2024-03-03T05:03:59.600Z,9.12
2024-03-03T05:04:59.709Z,9.15
2024-03-03T05:05:59.827Z,9.15
2024-03-03T05:06:59.846Z,9.16
2024-03-03T05:07:59.914Z,9.16
2024-03-03T05:08:59.981Z,9.15
2024-03-03T05:10:00.126Z,9.19
2024-03-03T05:11:00.364Z,9.17
2024-03-03T05:12:00.215Z,9.17
2024-03-03T05:13:00.329Z,9.17
2024-03-03T05:14:00.394Z,9.19
2024-03-03T05:15:00.492Z,9.17
2024-03-03T05:16:00.832Z,9.17
2024-03-03T05:17:00.650Z,9.15
2024-03-03T05:18:00.758Z,9.13
2024-03-03T05:19:00.901Z,9.13
2024-03-03T05:20:00.885Z,9.13
2024-03-03T05:21:01.203Z,9.13
2024-03-03T05:22:01.055Z,9.12
2024-03-03T05:23:01.119Z,9.13
2024-03-03T05:24:01.199Z,9.12
2024-03-03T05:25:01.349Z,9.15
2024-03-03T05:26:01.616Z,9.13
2024-03-03T05:27:01.396Z,9.13
2024-03-03T05:28:01.562Z,9.12
2024-03-03T05:29:01.573Z,9.08
2024-03-03T05:30:01.681Z,9.08
2024-03-03T05:31:01.835Z,9.06
2024-03-03T05:32:01.809Z,9.08
2024-03-03T05:33:01.989Z,9.08
2024-03-03T05:34:02.086Z,9.06
2024-03-03T05:35:02.044Z,9.06
2024-03-03T05:36:02.317Z,9.08
2024-03-03T05:37:02.240Z,9.06
2024-03-03T05:38:02.251Z,9.08
2024-03-03T05:39:02.376Z,9.08
2024-03-03T05:40:02.548Z,9.08
2024-03-03T05:41:02.508Z,9.08
2024-03-03T05:42:02.580Z,9.12
2024-03-03T05:43:02.724Z,9.12
2024-03-03T05:44:02.729Z,9.12
2024-03-03T05:45:02.844Z,9.06
2024-03-03T05:46:02.992Z,9.01
2024-03-03T05:47:02.970Z,9.01
2024-03-03T05:48:03.148Z,8.94
2024-03-03T05:49:03.134Z,8.88
2024-03-03T05:50:03.207Z,8.83
2024-03-03T05:51:03.267Z,8.80
2024-03-03T05:52:03.379Z,8.79
2024-03-03T05:53:03.421Z,8.76
2024-03-03T05:54:03.511Z,8.75
2024-03-03T05:55:03.629Z,8.76
2024-03-03T05:56:03.677Z,8.75
2024-03-03T05:57:03.717Z,8.76
2024-03-03T05:58:03.867Z,8.79
2024-03-03T05:59:03.858Z,8.78
2024-03-03T06:00:03.936Z,8.78
2024-03-03T06:01:04.106Z,8.71
2024-03-03T06:02:04.160Z,8.71
2024-03-03T06:03:04.175Z,8.68
2024-03-03T06:04:04.290Z,8.68
2024-03-03T06:05:04.334Z,8.64
2024-03-03T06:06:04.447Z,8.64
2024-03-03T06:07:04.514Z,8.65
2024-03-03T06:08:04.579Z,8.61
2024-03-03T06:09:04.665Z,8.58
2024-03-03T06:10:04.777Z,8.58
2024-03-03T06:11:04.909Z,8.60
2024-03-03T06:12:04.900Z,8.61
2024-03-03T06:13:05.022Z,8.60
2024-03-03T06:14:05.069Z,8.57
2024-03-03T06:15:05.160Z,8.55
2024-03-03T06:16:05.283Z,8.54
2024-03-03T06:17:05.304Z,8.54
2024-03-03T06:18:05.464Z,8.55
2024-03-03T06:19:05.519Z,8.52
2024-03-03T06:20:05.582Z,8.58
2024-03-03T06:21:05.688Z,8.61
2024-03-03T06:22:05.772Z,8.65
2024-03-03T06:23:05.846Z,8.67
2024-03-03T06:24:05.926Z,8.65
2024-03-03T06:25:06.070Z,8.64
2024-03-03T06:26:06.120Z,8.63
2024-03-03T06:27:06.167Z,8.61
2024-03-03T06:28:06.265Z,8.61
2024-03-03T06:29:07.446Z,8.64
2024-03-03T06:30:06.401Z,8.64
2024-03-03T06:31:06.503Z,8.64
2024-03-03T06:32:06.592Z,8.64
2024-03-03T06:33:06.706Z,8.60
2024-03-03T06:34:06.827Z,8.57
2024-03-03T06:35:06.848Z,8.58
2024-03-03T06:36:06.946Z,8.55
2024-03-03T06:37:07.078Z,8.54
2024-03-03T06:38:07.072Z,8.52
2024-03-03T06:39:07.160Z,8.54
2024-03-03T06:40:07.257Z,8.54
2024-03-03T06:41:07.354Z,8.55
2024-03-03T06:42:07.462Z,8.57
2024-03-03T06:43:07.509Z,8.61
2024-03-03T06:44:07.564Z,8.63
2024-03-03T06:45:07.653Z,8.64
2024-03-03T06:46:07.786Z,8.65
2024-03-03T06:47:07.832Z,8.65
2024-03-03T06:48:07.944Z,8.63
2024-03-03T06:49:08.000Z,8.67
2024-03-03T06:50:08.077Z,8.70
2024-03-03T06:51:08.181Z,8.70
2024-03-03T06:52:08.395Z,8.75
2024-03-03T06:53:08.297Z,8.71
2024-03-03T06:54:08.384Z,8.73
2024-03-03T06:55:08.601Z,8.76
2024-03-03T06:56:08.603Z,8.79
2024-03-03T06:57:08.667Z,8.83
2024-03-03T06:58:08.744Z,8.82
2024-03-03T06:59:08.808Z,8.79
2024-03-03T07:00:08.913Z,8.79
2024-03-03T07:01:09.088Z,8.78
2024-03-03T07:02:09.156Z,8.80
2024-03-03T07:03:09.167Z,8.80
2024-03-03T07:04:09.316Z,8.80
2024-03-03T07:05:09.412Z,8.85
2024-03-03T07:06:09.393Z,8.86
2024-03-03T07:07:09.469Z,8.86
2024-03-03T07:08:09.518Z,8.88
2024-03-03T07:09:09.709Z,8.91
2024-03-03T07:10:09.803Z,8.89
2024-03-03T07:11:09.878Z,8.93
2024-03-03T07:12:09.876Z,8.91
2024-03-03T07:13:10.001Z,8.96
2024-03-03T07:14:10.061Z,8.94
2024-03-03T07:15:10.141Z,8.98
2024-03-03T07:16:10.331Z,9.00
2024-03-03T07:17:10.298Z,9.04
2024-03-03T07:18:10.459Z,9.06
2024-03-03T07:19:10.528Z,9.08
2024-03-03T07:20:10.567Z,9.12
2024-03-03T07:21:10.641Z,9.06
2024-03-03T07:22:10.787Z,9.06
2024-03-03T07:23:10.796Z,9.04
2024-03-03T07:24:10.918Z,9.01
2024-03-03T07:25:11.015Z,9.04
2024-03-03T07:26:11.102Z,9.08
2024-03-03T07:27:11.135Z,9.12
2024-03-03T07:28:11.355Z,9.15
2024-03-03T07:29:11.294Z,9.19
2024-03-03T07:30:11.379Z,9.20
2024-03-03T07:31:11.508Z,9.22
2024-03-03T07:32:11.551Z,9.24
2024-03-03T07:33:11.706Z,9.23
2024-03-03T07:34:11.749Z,9.23
2024-03-03T07:35:11.780Z,9.24
2024-03-03T07:36:11.892Z,9.30
2024-03-03T07:37:12.039Z,9.34
2024-03-03T07:38:12.034Z,9.40
2024-03-03T07:39:12.114Z,9.45
2024-03-03T07:40:12.264Z,9.48
2024-03-03T07:41:12.313Z,9.53
2024-03-03T07:42:12.372Z,9.53
2024-03-03T07:43:12.480Z,9.56
2024-03-03T07:44:12.538Z,9.59
2024-03-03T07:45:12.600Z,9.60
2024-03-03T07:46:12.763Z,9.56
2024-03-03T07:47:12.757Z,9.52
2024-03-03T07:48:12.844Z,9.50
2024-03-03T07:49:12.937Z,9.53
2024-03-03T07:50:12.997Z,9.55
2024-03-03T07:51:13.076Z,9.56
2024-03-03T07:52:13.229Z,9.60
2024-03-03T07:53:13.218Z,9.59
2024-03-03T07:54:13.285Z,9.62
2024-03-03T07:55:13.404Z,9.62
2024-03-03T07:56:13.449Z,9.59
2024-03-03T07:57:13.516Z,9.60
2024-03-03T07:58:13.609Z,9.63
2024-03-03T07:59:13.677Z,9.67
2024-03-03T08:00:13.756Z,9.73
2024-03-03T08:01:13.975Z,9.75
2024-03-03T08:02:13.952Z,9.80
2024-03-03T08:03:13.978Z,9.83
2024-03-03T08:04:14.073Z,9.85
2024-03-03T08:05:14.162Z,9.83
2024-03-03T08:06:14.213Z,9.81
2024-03-03T08:07:14.308Z,9.78
2024-03-03T08:08:14.366Z,9.83
2024-03-03T08:09:14.459Z,9.81
2024-03-03T08:10:14.586Z,9.83
2024-03-03T08:11:14.669Z,9.86
2024-03-03T08:12:14.705Z,9.91
2024-03-03T08:13:14.770Z,9.93
2024-03-03T08:14:14.843Z,9.99
2024-03-03T08:15:14.920Z,10.06
2024-03-03T08:16:15.107Z,10.13
2024-03-03T08:17:15.104Z,10.20
2024-03-03T08:18:15.230Z,10.28
2024-03-03T08:19:15.255Z,10.32
2024-03-03T08:20:15.299Z,10.38
2024-03-03T08:21:15.397Z,10.42
2024-03-03T08:22:15.515Z,10.46
2024-03-03T08:23:15.532Z,10.54
2024-03-03T08:24:15.612Z,10.60
2024-03-03T08:25:15.794Z,10.58
2024-03-03T08:26:15.779Z,10.63
2024-03-03T08:27:15.840Z,10.68
2024-03-03T08:28:15.981Z,10.68
2024-03-03T08:29:15.987Z,10.73
2024-03-03T08:30:16.065Z,10.75
2024-03-03T08:31:16.183Z,10.78
2024-03-03T08:32:16.209Z,10.81
2024-03-03T08:33:16.321Z,10.83
2024-03-03T08:34:16.413Z,10.86
2024-03-03T08:35:16.396Z,10.88
2024-03-03T08:36:16.481Z,10.94
2024-03-03T08:37:16.601Z,11.05
2024-03-03T08:38:16.662Z,11.13
2024-03-03T08:39:16.716Z,11.21
2024-03-03T08:40:16.892Z,11.27
2024-03-03T08:41:16.890Z,11.31
2024-03-03T08:42:16.975Z,11.44
2024-03-03T08:43:17.105Z,11.54
2024-03-03T08:44:18.403Z,11.69
2024-03-03T08:45:17.366Z,11.88
2024-03-03T08:46:17.427Z,12.05
2024-03-03T08:47:17.424Z,12.04
2024-03-03T08:48:17.493Z,12.07
2024-03-03T08:49:17.615Z,12.03
2024-03-03T08:50:17.628Z,12.03
2024-03-03T08:51:17.723Z,11.96
2024-03-03T08:52:17.889Z,11.85
2024-03-03T08:53:17.877Z,11.74
2024-03-03T08:54:17.945Z,11.66
2024-03-03T08:55:18.076Z,11.59
2024-03-03T08:56:18.152Z,11.59
2024-03-03T08:57:18.208Z,11.57
2024-03-03T08:58:18.344Z,11.56
2024-03-03T08:59:18.400Z,11.56
2024-03-03T09:00:18.466Z,11.60
2024-03-03T09:01:18.627Z,11.62
2024-03-03T09:02:18.608Z,11.60
2024-03-03T09:03:18.701Z,11.59
2024-03-03T09:04:18.810Z,11.57
2024-03-03T09:05:18.853Z,11.59
2024-03-03T09:06:18.972Z,11.64
2024-03-03T09:07:19.106Z,11.64
2024-03-03T09:08:19.137Z,11.72
2024-03-03T09:09:19.212Z,11.69
2024-03-03T09:10:19.335Z,11.72
2024-03-03T09:11:19.450Z,11.67
2024-03-03T09:12:19.440Z,11.72
2024-03-03T09:13:19.630Z,11.74
2024-03-03T09:14:19.612Z,11.84
2024-03-03T09:15:19.687Z,12.04
2024-03-03T09:16:22.739Z,12.22
2024-03-03T09:17:19.826Z,12.49
2024-03-03T09:18:19.922Z,13.01
2024-03-03T09:19:20.148Z,13.83
2024-03-03T09:20:20.099Z,14.53
2024-03-03T09:21:20.158Z,15.09
2024-03-03T09:22:20.272Z,15.44
2024-03-03T09:23:20.296Z,16.14
2024-03-03T09:24:20.675Z,16.95
2024-03-03T09:25:20.514Z,17.70
2024-03-03T09:26:20.593Z,18.56
2024-03-03T09:27:20.636Z,18.78
2024-03-03T09:28:20.822Z,18.44
2024-03-03T09:29:24.010Z,18.23
2024-03-03T09:30:20.831Z,18.17
2024-03-03T09:31:21.026Z,18.56
2024-03-03T09:32:20.996Z,18.51
2024-03-03T09:33:21.084Z,18.46
2024-03-03T09:34:21.305Z,18.39
2024-03-03T09:35:21.251Z,18.26
2024-03-03T09:36:21.333Z,18.17
2024-03-03T09:37:21.480Z,18.10
2024-03-03T09:38:21.502Z,18.26
2024-03-03T09:39:21.599Z,17.79
2024-03-03T09:40:21.693Z,16.99
2024-03-03T09:41:21.787Z,17.20
2024-03-03T09:42:21.836Z,17.38
2024-03-03T09:43:22.012Z,17.71
2024-03-03T09:44:22.003Z,17.87
2024-03-03T09:45:22.124Z,17.76
2024-03-03T09:46:22.373Z,17.63
2024-03-03T09:47:22.280Z,17.65
2024-03-03T09:48:22.364Z,17.94
2024-03-03T09:49:22.532Z,18.44
2024-03-03T09:50:22.502Z,18.66
2024-03-03T09:51:22.617Z,18.79
2024-03-03T09:52:22.696Z,18.97
2024-03-03T09:53:22.781Z,19.20
2024-03-03T09:54:22.836Z,19.32
2024-03-03T09:55:23.197Z,19.42
2024-03-03T09:56:23.018Z,19.46
2024-03-03T09:57:23.078Z,19.09
2024-03-03T09:58:23.176Z,18.69
2024-03-03T09:59:23.220Z,18.44
2024-03-03T10:00:23.295Z,17.60
2024-03-03T10:01:23.447Z,16.77
2024-03-03T10:02:25.565Z,16.63
2024-03-03T10:03:23.513Z,16.30
2024-03-03T10:04:23.699Z,16.26
2024-03-03T10:05:23.672Z,15.93
2024-03-03T10:06:23.772Z,16.14
2024-03-03T10:07:24.035Z,16.82
2024-03-03T10:08:23.926Z,17.47
2024-03-03T10:09:23.991Z,17.66
2024-03-03T10:10:24.156Z,18.32
2024-03-03T10:11:24.199Z,18.91
2024-03-03T10:12:27.583Z,19.64
2024-03-03T10:13:24.317Z,20.27
2024-03-03T10:14:24.372Z,20.25
2024-03-03T10:15:24.439Z,20.20
2024-03-03T10:16:24.582Z,19.61
2024-03-03T10:17:24.663Z,19.06
2024-03-03T10:18:24.689Z,18.49
2024-03-03T10:19:24.807Z,17.45
2024-03-03T10:20:24.853Z,17.00
2024-03-03T10:21:24.939Z,16.60
2024-03-03T10:22:25.052Z,16.13
2024-03-03T10:23:25.368Z,15.88
2024-03-03T10:24:25.586Z,15.76
2024-03-03T10:25:25.413Z,15.70
2024-03-03T10:26:25.366Z,15.48
2024-03-03T10:27:25.448Z,15.37
2024-03-03T10:28:25.814Z,15.43
2024-03-03T10:29:25.639Z,15.55
2024-03-03T10:30:25.724Z,15.70
2024-03-03T10:31:25.877Z,15.85
2024-03-03T10:32:25.993Z,15.81
2024-03-03T10:33:25.954Z,15.60
2024-03-03T10:34:26.248Z,15.58
2024-03-03T10:35:26.107Z,15.60
2024-03-03T10:36:26.183Z,15.64
2024-03-03T10:37:26.347Z,15.68
2024-03-03T10:38:26.327Z,15.76
2024-03-03T10:39:26.419Z,15.88
2024-03-03T10:40:26.527Z,15.93
2024-03-03T10:41:26.560Z,16.01
2024-03-03T10:42:26.795Z,15.95
2024-03-03T10:43:26.769Z,15.95
2024-03-03T10:44:26.761Z,15.95
2024-03-03T10:45:26.841Z,15.81
2024-03-03T10:46:26.953Z,15.78
2024-03-03T10:47:27.034Z,15.74
2024-03-03T10:48:27.057Z,15.74
2024-03-03T10:49:27.230Z,15.76
2024-03-03T10:50:27.224Z,15.80
2024-03-03T10:51:27.279Z,15.76
2024-03-03T10:52:27.487Z,15.77
2024-03-03T10:53:29.773Z,15.78
2024-03-03T10:54:27.527Z,15.60
2024-03-03T10:55:27.649Z,15.60
2024-03-03T10:56:27.725Z,15.60
2024-03-03T10:57:27.777Z,15.73
2024-03-03T10:58:28.042Z,15.48
2024-03-03T10:59:31.065Z,14.95
2024-03-03T11:00:28.016Z,14.78
2024-03-03T11:01:28.160Z,14.69
2024-03-03T11:02:28.160Z,14.79
2024-03-03T11:03:28.222Z,14.85
2024-03-03T11:04:28.356Z,14.87
2024-03-03T11:05:30.945Z,14.98
2024-03-03T11:06:28.478Z,14.91
2024-03-03T11:07:28.591Z,14.97
2024-03-03T11:08:28.621Z,14.87
2024-03-03T11:09:28.703Z,14.87
2024-03-03T11:10:28.904Z,15.04
2024-03-03T11:11:31.780Z,14.94
2024-03-03T11:12:28.925Z,15.04
2024-03-03T11:13:29.067Z,15.23
2024-03-03T11:14:29.079Z,15.40
2024-03-03T11:15:29.164Z,15.38
2024-03-03T11:16:29.304Z,15.15
2024-03-03T11:17:31.380Z,15.09
2024-03-03T11:18:29.394Z,15.20
2024-03-03T11:19:29.529Z,15.18
2024-03-03T11:20:29.548Z,15.11
2024-03-03T11:21:29.638Z,15.16
2024-03-03T11:22:29.786Z,15.34
2024-03-03T11:23:29.782Z,15.28
2024-03-03T11:24:29.872Z,15.30
2024-03-03T11:25:30.062Z,15.23
2024-03-03T11:26:30.058Z,15.35
2024-03-03T11:27:30.090Z,15.41
2024-03-03T11:28:30.287Z,15.30
2024-03-03T11:29:30.252Z,15.28
2024-03-03T11:30:30.342Z,15.37
2024-03-03T11:31:30.506Z,15.40
2024-03-03T11:32:30.584Z,15.51
2024-03-03T11:33:30.582Z,15.64
2024-03-03T11:34:30.692Z,15.71
2024-03-03T11:35:30.720Z,15.85
2024-03-03T11:36:30.831Z,15.71
2024-03-03T11:37:30.935Z,15.40
2024-03-03T11:38:31.001Z,15.41
2024-03-03T11:39:31.053Z,15.64
2024-03-03T11:40:31.177Z,15.71
2024-03-03T11:41:31.213Z,15.56
2024-03-03T11:42:31.265Z,15.49
2024-03-03T11:43:31.350Z,15.66
2024-03-03T11:44:31.412Z,15.80
2024-03-03T11:45:31.470Z,15.93
2024-03-03T11:46:31.651Z,15.95
2024-03-03T11:47:31.670Z,16.03
2024-03-03T11:48:31.752Z,16.06
2024-03-03T11:49:31.876Z,15.85
2024-03-03T11:50:31.916Z,15.62
2024-03-03T11:51:32.010Z,15.71
2024-03-03T11:52:32.138Z,15.80
2024-03-03T11:53:32.150Z,15.92
2024-03-03T11:54:32.232Z,16.01
2024-03-03T11:55:32.509Z,16.07
2024-03-03T11:56:32.401Z,15.95
2024-03-03T11:57:32.517Z,15.81
2024-03-03T11:58:32.606Z,15.86
2024-03-03T11:59:32.642Z,15.95
2024-03-03T12:00:32.725Z,16.03
2024-03-03T12:01:32.911Z,16.10
2024-03-03T12:02:33.511Z,15.99
2024-03-03T12:03:32.947Z,15.98
2024-03-03T12:04:33.087Z,16.03
2024-03-03T12:05:33.100Z,16.11
2024-03-03T12:06:33.219Z,16.22
2024-03-03T12:07:33.332Z,16.18
2024-03-03T12:08:33.348Z,16.26
2024-03-03T12:09:33.467Z,16.30
2024-03-03T12:10:34.149Z,16.30
2024-03-03T12:11:33.687Z,16.22
2024-03-03T12:12:33.679Z,16.22
2024-03-03T12:13:33.831Z,16.23
2024-03-03T12:14:33.827Z,16.27
2024-03-03T12:15:33.915Z,16.25
2024-03-03T12:16:34.145Z,16.17
2024-03-03T12:17:34.077Z,16.10
2024-03-03T12:18:34.152Z,16.04
2024-03-03T12:19:34.266Z,16.01
2024-03-03T12:20:34.389Z,15.96
2024-03-03T12:21:34.433Z,15.96
2024-03-03T12:22:34.594Z,16.01
2024-03-03T12:23:34.585Z,16.03
2024-03-03T12:24:34.682Z,15.85
2024-03-03T12:25:34.814Z,15.77
2024-03-03T12:26:34.858Z,15.78
2024-03-03T12:27:34.900Z,15.84
2024-03-03T12:28:35.021Z,15.78
2024-03-03T12:29:35.074Z,15.85
2024-03-03T12:30:35.144Z,15.92
2024-03-03T12:31:35.268Z,15.98
2024-03-03T12:32:35.394Z,16.06
2024-03-03T12:33:35.372Z,16.08
2024-03-03T12:34:35.476Z,16.07
2024-03-03T12:35:35.537Z,16.01
2024-03-03T12:36:35.623Z,16.03
2024-03-03T12:37:35.702Z,16.04
2024-03-03T12:38:35.784Z,16.06
2024-03-03T12:39:35.864Z,16.13
2024-03-03T12:40:35.977Z,16.11
2024-03-03T12:41:36.063Z,16.08
2024-03-03T12:42:36.109Z,16.08
2024-03-03T12:43:36.233Z,16.01
2024-03-03T12:44:36.314Z,16.04
2024-03-03T12:45:36.391Z,16.04
2024-03-03T12:46:36.487Z,15.95
2024-03-03T12:47:36.521Z,15.96
2024-03-03T12:48:36.612Z,15.96
2024-03-03T12:49:36.676Z,15.93
2024-03-03T12:50:36.749Z,15.91
2024-03-03T12:51:36.850Z,15.93
2024-03-03T12:52:36.942Z,15.96
2024-03-03T12:53:41.012Z,15.95
2024-03-03T12:54:37.085Z,15.95
2024-03-03T12:55:37.174Z,15.95
2024-03-03T12:56:37.273Z,15.95
2024-03-03T12:57:37.355Z,15.96
2024-03-03T12:58:37.477Z,15.99
2024-03-03T12:59:37.535Z,15.99
2024-03-03T13:00:37.638Z,16.01
2024-03-03T13:01:37.810Z,16.01
2024-03-03T13:02:37.777Z,15.96
2024-03-03T13:03:37.853Z,15.96
2024-03-03T13:04:37.937Z,15.99